createdAt,value
2018-12-14T00:00:00.417Z,98134.73
2018-12-14T00:02:33.350Z,98134.41
2018-12-14T00:05:07.002Z,98136.63
2018-12-14T00:07:39.911Z,98134.47
2018-12-14T00:10:11.663Z,98145.67
2018-12-14T00:12:42.597Z,98134.69
2018-12-14T00:15:13.970Z,98126.13
2018-12-14T00:17:44.854Z,98131.12
2018-12-14T00:20:15.731Z,98138.07
2018-12-14T00:22:46.585Z,98125.05
2018-12-14T00:25:17.475Z,98130.09
2018-12-14T00:27:48.660Z,98128.40
2018-12-14T00:30:19.561Z,98124.55
2018-12-14T00:32:50.538Z,98122.91
2018-12-14T00:35:22.097Z,98122.38
2018-12-14T00:37:53.033Z,98124.39
2018-12-14T00:40:23.883Z,98125.32
2018-12-14T00:42:54.796Z,98139.61
2018-12-14T00:45:25.737Z,98141.45
2018-12-14T00:47:57.341Z,98134.72
2018-12-14T00:50:28.365Z,98141.66
2018-12-14T00:52:59.242Z,98141.02
2018-12-14T00:55:31.945Z,98141.60
2018-12-14T00:58:03.410Z,98136.52
2018-12-14T01:00:37.822Z,98137.89
2018-12-14T01:03:08.726Z,98146.84
2018-12-14T01:05:39.989Z,98150.85
2018-12-14T01:08:10.897Z,98150.50
2018-12-14T01:10:41.953Z,98151.63
2018-12-14T01:13:12.880Z,98149.81
2018-12-14T01:15:44.044Z,98155.33
2018-12-14T01:18:14.965Z,98157.33
2018-12-14T01:20:45.910Z,98162.37
2018-12-14T01:23:16.853Z,98161.70
2018-12-14T01:25:47.779Z,98159.09
2018-12-14T01:28:18.713Z,98158.05
2018-12-14T01:30:49.649Z,98156.82
2018-12-14T01:33:20.576Z,98157.28
2018-12-14T01:35:51.525Z,98159.23
2018-12-14T01:38:22.457Z,98150.34
2018-12-14T01:40:53.526Z,98154.88
2018-12-14T01:43:24.369Z,98156.67
2018-12-14T01:45:55.242Z,98156.62
2018-12-14T01:48:26.122Z,98159.97
2018-12-14T01:50:57.090Z,98161.51
2018-12-14T01:53:27.946Z,98169.95
2018-12-14T01:55:58.843Z,98163.77
2018-12-14T01:58:29.684Z,98164.04
2018-12-14T02:01:01.071Z,98158.80
2018-12-14T02:03:31.937Z,98154.77
2018-12-14T02:06:02.890Z,98158.22
2018-12-14T02:08:34.252Z,98153.76
2018-12-14T02:11:05.658Z,98151.48
2018-12-14T02:13:36.843Z,98153.91
2018-12-14T02:16:07.975Z,98151.14
2018-12-14T02:18:38.830Z,98145.73
2018-12-14T02:21:09.842Z,98142.80
2018-12-14T02:23:40.690Z,98140.13
2018-12-14T02:26:11.663Z,98140.63
2018-12-14T02:28:42.582Z,98143.77
2018-12-14T02:31:13.510Z,98151.02
2018-12-14T02:33:44.426Z,98144.85
2018-12-14T02:36:15.695Z,98151.17
2018-12-14T02:38:46.605Z,98147.98
2018-12-14T02:41:17.551Z,98149.64
2018-12-14T02:43:49.967Z,98152.91
2018-12-14T02:46:20.841Z,98149.06
2018-12-14T02:48:51.702Z,98157.09
2018-12-14T02:51:23.136Z,98160.83
2018-12-14T02:53:54.070Z,98153.52
2018-12-14T02:56:25.343Z,98155.18
2018-12-14T02:58:56.174Z,98154.25
2018-12-14T03:01:27.613Z,98154.66
2018-12-14T03:03:58.499Z,98150.14
2018-12-14T03:06:29.712Z,98148.13
2018-12-14T03:09:01.035Z,98156.72
2018-12-14T03:11:33.630Z,98151.68
2018-12-14T03:14:05.587Z,98157.55
2018-12-14T03:16:36.436Z,98155.23
2018-12-14T03:19:07.511Z,98157.55
2018-12-14T03:21:39.541Z,98153.38
2018-12-14T03:24:10.357Z,98162.01
2018-12-14T03:26:41.218Z,98161.19
2018-12-14T03:29:12.062Z,98161.19
2018-12-14T03:31:42.970Z,98160.67
2018-12-14T03:34:13.810Z,98151.27
2018-12-14T03:36:44.906Z,98153.80
2018-12-14T03:39:16.003Z,98154.25
2018-12-14T03:41:47.495Z,98149.16
2018-12-14T03:44:18.399Z,98152.23
2018-12-14T03:46:49.614Z,98156.31
2018-12-14T03:49:20.584Z,98155.44
2018-12-14T03:51:51.488Z,98158.83
2018-12-14T03:54:22.358Z,98162.31
2018-12-14T03:56:53.274Z,98154.61
2018-12-14T03:59:24.534Z,98164.28
2018-12-14T04:01:55.571Z,98159.30
2018-12-14T04:04:26.497Z,98168.94
2018-12-14T04:06:57.426Z,98173.27
2018-12-14T04:09:28.698Z,98162.56
2018-12-14T04:11:59.574Z,98167.20
2018-12-14T04:14:30.571Z,98163.90
2018-12-14T04:17:01.908Z,98165.28
2018-12-14T04:19:32.955Z,98177.27
2018-12-14T04:22:03.862Z,98172.23
2018-12-14T04:24:34.715Z,98174.94
2018-12-14T04:27:05.645Z,98170.33
2018-12-14T04:29:37.420Z,98172.13
2018-12-14T04:32:08.329Z,98176.03
2018-12-14T04:34:39.187Z,98172.33
2018-12-14T04:37:10.108Z,98179.56
2018-12-14T04:39:40.980Z,98167.52
2018-12-14T04:42:11.883Z,98168.75
2018-12-14T04:44:42.639Z,98170.72
2018-12-14T04:47:13.610Z,98171.27
2018-12-14T04:49:45.459Z,98166.66
2018-12-14T04:52:16.382Z,98171.56
2018-12-14T04:54:47.628Z,98174.36
2018-12-14T04:57:18.536Z,98177.73
2018-12-14T04:59:49.916Z,98174.25
2018-12-14T05:02:20.818Z,98171.16
2018-12-14T05:04:52.164Z,98170.95
2018-12-14T05:07:23.105Z,98175.95
2018-12-14T05:09:54.054Z,98177.39
2018-12-14T05:12:24.990Z,98182.48
2018-12-14T05:14:56.275Z,98180.01
2018-12-14T05:17:27.815Z,98173.28
2018-12-14T05:19:58.846Z,98178.77
2018-12-14T05:22:29.857Z,98183.31
2018-12-14T05:25:01.138Z,98182.07
2018-12-14T05:27:32.630Z,98184.74
2018-12-14T05:30:06.015Z,98183.31
2018-12-14T05:32:36.893Z,98176.20
2018-12-14T05:35:08.293Z,98177.02
2018-12-14T05:37:39.181Z,98174.23
2018-12-14T05:40:10.457Z,98178.13
2018-12-14T05:42:41.701Z,98182.36
2018-12-14T05:45:12.551Z,98185.74
2018-12-14T05:47:43.724Z,98185.14
2018-12-14T05:50:14.557Z,98189.88
2018-12-14T05:52:45.405Z,98185.29
2018-12-14T05:55:16.357Z,98181.94
2018-12-14T05:57:47.242Z,98179.84
2018-12-14T06:00:18.797Z,98182.36
2018-12-14T06:02:51.321Z,98191.32
2018-12-14T06:05:26.889Z,98196.65
2018-12-14T06:07:59.818Z,98197.05
2018-12-14T06:10:30.807Z,98195.72
2018-12-14T06:13:02.194Z,98210.32
2018-12-14T06:15:33.463Z,98205.00
2018-12-14T06:18:08.625Z,98202.48
2018-12-14T06:20:40.038Z,98204.09
2018-12-14T06:23:10.919Z,98207.03
2018-12-14T06:25:42.674Z,98209.59
2018-12-14T06:28:13.716Z,98209.18
2018-12-14T06:30:44.589Z,98212.44
2018-12-14T06:33:15.514Z,98224.63
2018-12-14T06:35:46.417Z,98227.63
2018-12-14T06:38:17.406Z,98226.80
2018-12-14T06:40:48.398Z,98231.80
2018-12-14T06:43:19.309Z,98230.64
2018-12-14T06:45:50.226Z,98239.63
2018-12-14T06:48:21.094Z,98231.66
2018-12-14T06:50:52.297Z,98234.58
2018-12-14T06:53:23.185Z,98240.91
2018-12-14T06:55:54.149Z,98236.01
2018-12-14T06:58:25.570Z,98236.33
2018-12-14T07:00:56.431Z,98242.20
2018-12-14T07:03:28.228Z,98245.09
2018-12-14T07:05:59.067Z,98245.91
2018-12-14T07:08:31.301Z,98259.83
2018-12-14T07:11:02.538Z,98249.67
2018-12-14T07:13:39.998Z,98249.22
2018-12-14T07:16:10.948Z,98254.04
2018-12-14T07:18:41.817Z,98255.33
2018-12-14T07:21:12.734Z,98254.04
2018-12-14T07:23:43.680Z,98257.16
2018-12-14T07:26:14.581Z,98265.36
2018-12-14T07:28:45.701Z,98267.88
2018-12-14T07:31:16.674Z,98269.08
2018-12-14T07:33:47.734Z,98265.36
2018-12-14T07:36:19.028Z,98267.16
2018-12-14T07:38:49.940Z,98265.00
2018-12-14T07:41:20.824Z,98275.64
2018-12-14T07:43:51.997Z,98275.18
2018-12-14T07:46:23.317Z,98282.44
2018-12-14T07:48:54.415Z,98298.75
2018-12-14T07:51:25.314Z,98288.52
2018-12-14T07:53:56.277Z,98291.00
2018-12-14T07:56:27.660Z,98291.05
2018-12-14T07:58:59.374Z,98297.76
2018-12-14T08:01:30.243Z,98300.93
2018-12-14T08:04:01.150Z,98297.84
2018-12-14T08:06:32.009Z,98299.92
2018-12-14T08:09:03.249Z,98316.44
2018-12-14T08:11:36.044Z,98311.95
2018-12-14T08:14:06.894Z,98314.83
2018-12-14T08:16:38.014Z,98311.48
2018-12-14T08:19:08.964Z,98312.85
2018-12-14T08:21:39.842Z,98318.46
2018-12-14T08:24:10.774Z,98314.70
2018-12-14T08:26:41.725Z,98323.13
2018-12-14T08:29:12.664Z,98314.14
2018-12-14T08:31:43.876Z,98320.02
2018-12-14T08:34:14.746Z,98320.75
2018-12-14T08:36:45.870Z,98332.32
2018-12-14T08:39:16.817Z,98328.42
2018-12-14T08:41:48.153Z,98329.28
2018-12-14T08:44:19.003Z,98332.23
2018-12-14T08:46:49.954Z,98333.23
2018-12-14T08:49:20.879Z,98339.16
2018-12-14T08:51:51.826Z,98338.47
2018-12-14T08:54:23.144Z,98339.28
2018-12-14T08:56:54.089Z,98341.81
2018-12-14T08:59:25.029Z,98340.52
2018-12-14T09:01:56.510Z,98345.67
2018-12-14T09:04:27.413Z,98347.42
2018-12-14T09:06:58.267Z,98348.84
2018-12-14T09:09:29.129Z,98352.79
2018-12-14T09:12:00.472Z,98359.98
2018-12-14T09:14:31.330Z,98360.59
2018-12-14T09:17:02.189Z,98367.94
2018-12-14T09:19:33.056Z,98369.41
2018-12-14T09:22:04.401Z,98380.42
2018-12-14T09:24:35.353Z,98381.38
2018-12-14T09:27:06.366Z,98384.00
2018-12-14T09:29:37.221Z,98386.89
2018-12-14T09:32:08.141Z,98390.48
2018-12-14T09:34:39.751Z,98388.73
2018-12-14T09:37:10.606Z,98392.50
2018-12-14T09:39:42.305Z,98388.59
2018-12-14T09:42:13.245Z,98383.59
2018-12-14T09:44:44.085Z,98385.52
2018-12-14T09:47:15.129Z,98389.33
2018-12-14T09:49:47.153Z,98384.36
2018-12-14T09:52:18.021Z,98387.86
2018-12-14T09:54:48.949Z,98385.70
2018-12-14T09:57:19.890Z,98384.97
2018-12-14T09:59:50.821Z,98393.27
2018-12-14T10:02:21.780Z,98392.56
2018-12-14T10:04:52.695Z,98393.80
2018-12-14T10:07:24.077Z,98397.42
2018-12-14T10:09:54.914Z,98402.48
2018-12-14T10:12:25.839Z,98398.45
2018-12-14T10:14:56.761Z,98404.70
2018-12-14T10:17:28.849Z,98394.55
2018-12-14T10:19:59.702Z,98390.92
2018-12-14T10:22:32.490Z,98390.41
2018-12-14T10:25:03.386Z,98394.55
2018-12-14T10:27:34.309Z,98395.52
2018-12-14T10:30:06.802Z,98394.80
2018-12-14T10:32:37.734Z,98398.83
2018-12-14T10:35:11.035Z,98393.10
2018-12-14T10:37:42.065Z,98393.55
2018-12-14T10:40:13.927Z,98389.52
2018-12-14T10:42:44.946Z,98398.18
2018-12-14T10:45:15.904Z,98398.28
2018-12-14T10:47:46.813Z,98395.75
2018-12-14T10:50:17.994Z,98388.86
2018-12-14T10:52:48.846Z,98394.27
2018-12-14T10:55:19.781Z,98397.45
2018-12-14T10:57:51.313Z,98396.44
2018-12-14T11:00:27.294Z,98398.69
2018-12-14T11:02:58.188Z,98396.80
2018-12-14T11:05:29.546Z,98395.78
2018-12-14T11:08:00.433Z,98391.36
2018-12-14T11:10:31.300Z,98399.78
2018-12-14T11:13:02.172Z,98399.47
2018-12-14T11:15:33.094Z,98402.59
2018-12-14T11:18:04.048Z,98405.40
2018-12-14T11:20:34.968Z,98405.34
2018-12-14T11:23:05.834Z,98401.95
2018-12-14T11:25:37.415Z,98404.61
2018-12-14T11:28:08.322Z,98404.66
2018-12-14T11:30:39.165Z,98406.59
2018-12-14T11:33:10.039Z,98409.57
2018-12-14T11:35:40.869Z,98399.42
2018-12-14T11:38:11.755Z,98403.87
2018-12-14T11:40:42.677Z,98404.03
2018-12-14T11:43:13.619Z,98404.54
2018-12-14T11:45:44.546Z,98402.30
2018-12-14T11:48:15.506Z,98398.23
2018-12-14T11:50:46.461Z,98400.23
2018-12-14T11:53:20.268Z,98391.55
2018-12-14T11:55:51.693Z,98389.71
2018-12-14T11:58:22.637Z,98393.86
2018-12-14T12:00:53.555Z,98386.66
2018-12-14T12:03:24.473Z,98384.59
2018-12-14T12:05:56.057Z,98379.95
2018-12-14T12:08:26.923Z,98379.78
2018-12-14T12:10:57.834Z,98380.66
2018-12-14T12:13:28.864Z,98382.23
2018-12-14T12:15:59.830Z,98375.58
2018-12-14T12:18:30.718Z,98382.80
2018-12-14T12:21:02.117Z,98383.89
2018-12-14T12:23:33.446Z,98384.13
2018-12-14T12:26:04.991Z,98382.52
2018-12-14T12:28:36.829Z,98380.13
2018-12-14T12:31:07.980Z,98376.67
2018-12-14T12:33:38.842Z,98377.19
2018-12-14T12:36:09.759Z,98376.43
2018-12-14T12:38:40.595Z,98373.25
2018-12-14T12:41:11.536Z,98368.25
2018-12-14T12:43:42.519Z,98370.37
2018-12-14T12:46:13.610Z,98367.52
2018-12-14T12:48:45.118Z,98373.59
2018-12-14T12:51:16.739Z,98364.65
2018-12-14T12:53:47.611Z,98369.15
2018-12-14T12:56:19.130Z,98380.67
2018-12-14T12:58:50.082Z,98386.61
2018-12-14T13:01:20.981Z,98387.39
2018-12-14T13:03:52.912Z,98386.61
2018-12-14T13:06:23.739Z,98387.16
2018-12-14T13:08:55.238Z,98387.89
2018-12-14T13:11:26.178Z,98391.20
2018-12-14T13:13:57.145Z,98384.15
2018-12-14T13:16:28.055Z,98392.44
2018-12-14T13:18:58.975Z,98386.56
2018-12-14T13:21:29.854Z,98392.63
2018-12-14T13:24:00.759Z,98391.13
2018-12-14T13:26:31.627Z,98394.52
2018-12-14T13:29:02.867Z,98397.59
2018-12-14T13:31:33.730Z,98398.92
2018-12-14T13:34:06.889Z,98403.23
2018-12-14T13:36:38.019Z,98392.73
2018-12-14T13:39:09.078Z,98399.63
2018-12-14T13:41:40.361Z,98402.98
2018-12-14T13:44:11.256Z,98406.83
2018-12-14T13:46:42.186Z,98408.89
2018-12-14T13:49:13.436Z,98412.93
2018-12-14T13:51:44.541Z,98414.52
2018-12-14T13:54:15.376Z,98414.70
2018-12-14T13:56:46.358Z,98418.81
2018-12-14T13:59:17.193Z,98426.48
2018-12-14T14:01:48.317Z,98427.77
2018-12-14T14:04:19.216Z,98434.92
2018-12-14T14:06:50.116Z,98433.77
2018-12-14T14:09:21.647Z,98431.70
2018-12-14T14:11:52.829Z,98439.41
2018-12-14T14:14:24.753Z,98448.91
2018-12-14T14:16:56.316Z,98443.68
2018-12-14T14:19:27.574Z,98447.04
2018-12-14T14:21:58.462Z,98450.56
2018-12-14T14:24:30.659Z,98455.16
2018-12-14T14:27:01.514Z,98464.56
2018-12-14T14:29:32.441Z,98467.88
2018-12-14T14:32:03.277Z,98465.97
2018-12-14T14:34:34.198Z,98463.36
2018-12-14T14:37:05.517Z,98473.18
2018-12-14T14:39:36.543Z,98476.82
2018-12-14T14:42:08.790Z,98477.11
2018-12-14T14:44:39.706Z,98479.02
2018-12-14T14:47:10.609Z,98480.31
2018-12-14T14:49:41.990Z,98481.51
2018-12-14T14:52:12.904Z,98486.52
2018-12-14T14:54:43.855Z,98491.84
2018-12-14T14:57:14.719Z,98492.33
2018-12-14T14:59:45.741Z,98495.32
2018-12-14T15:02:16.605Z,98504.94
2018-12-14T15:04:47.502Z,98502.20
2018-12-14T15:07:18.412Z,98495.12
2018-12-14T15:09:49.369Z,98494.59
2018-12-14T15:12:20.302Z,98500.66
2018-12-14T15:14:51.348Z,98504.33
2018-12-14T15:17:22.290Z,98507.45
2018-12-14T15:19:53.232Z,98507.21
2018-12-14T15:22:24.147Z,98508.95
2018-12-14T15:24:55.729Z,98514.67
2018-12-14T15:27:26.680Z,98514.44
2018-12-14T15:29:57.589Z,98524.34
2018-12-14T15:32:29.377Z,98519.53
2018-12-14T15:35:00.374Z,98517.95
2018-12-14T15:37:31.646Z,98520.61
2018-12-14T15:40:02.566Z,98530.11
2018-12-14T15:42:33.530Z,98535.33
2018-12-14T15:45:05.480Z,98530.27
2018-12-14T15:47:36.414Z,98536.03
2018-12-14T15:50:08.489Z,98540.92
2018-12-14T15:52:39.817Z,98544.16
2018-12-14T15:55:11.088Z,98545.14
2018-12-14T15:57:43.063Z,98548.25
2018-12-14T16:00:14.760Z,98552.64
2018-12-14T16:02:45.847Z,98552.41
2018-12-14T16:05:16.814Z,98554.89
2018-12-14T16:07:48.347Z,98559.66
2018-12-14T16:10:19.229Z,98561.81
2018-12-14T16:12:51.124Z,98560.52
2018-12-14T16:15:22.047Z,98564.79
2018-12-14T16:17:54.061Z,98565.25
2018-12-14T16:20:25.171Z,98559.32
2018-12-14T16:22:56.166Z,98562.27
2018-12-14T16:25:27.020Z,98570.39
2018-12-14T16:27:58.242Z,98574.73
2018-12-14T16:30:29.080Z,98569.22
2018-12-14T16:33:00.063Z,98578.22
2018-12-14T16:35:37.793Z,98575.80
2018-12-14T16:38:08.681Z,98582.27
2018-12-14T16:40:40.071Z,98582.15
2018-12-14T16:43:12.090Z,98582.11
2018-12-14T16:45:43.086Z,98579.16
2018-12-14T16:48:15.078Z,98577.05
2018-12-14T16:50:47.958Z,98579.12
2018-12-14T16:53:21.340Z,98580.45
2018-12-14T16:55:54.758Z,98583.84
2018-12-14T16:58:25.744Z,98590.34
2018-12-14T17:00:57.227Z,98593.48
2018-12-14T17:03:30.493Z,98596.17
2018-12-14T17:06:09.942Z,98596.20
2018-12-14T17:08:41.885Z,98594.51
2018-12-14T17:11:17.273Z,98604.59
2018-12-14T17:13:49.223Z,98607.92
2018-12-14T17:16:22.417Z,98616.88
2018-12-14T17:18:56.405Z,98618.16
2018-12-14T17:21:28.729Z,98625.56
2018-12-14T17:24:01.002Z,98628.02
2018-12-14T17:26:32.582Z,98631.69
2018-12-14T17:29:05.762Z,98634.19
2018-12-14T17:31:36.652Z,98637.39
2018-12-14T17:34:08.039Z,98633.84
2018-12-14T17:36:40.351Z,98635.88
2018-12-14T17:39:14.750Z,98638.19
2018-12-14T17:41:54.247Z,98640.04
2018-12-14T17:44:28.415Z,98642.13
2018-12-14T17:46:59.430Z,98641.70
2018-12-14T17:49:32.056Z,98640.08
2018-12-14T17:52:03.251Z,98646.77
2018-12-14T17:54:36.637Z,98650.09
2018-12-14T17:57:09.234Z,98649.79
2018-12-14T17:59:42.216Z,98642.95
2018-12-14T18:02:16.422Z,98654.52
2018-12-14T18:04:50.064Z,98652.70
2018-12-14T18:07:21.255Z,98651.03
2018-12-14T18:09:53.029Z,98650.96
2018-12-14T18:12:27.170Z,98660.75
2018-12-14T18:15:02.511Z,98657.23
2018-12-14T18:17:36.775Z,98662.03
2018-12-14T18:20:09.432Z,98664.23
2018-12-14T18:22:43.187Z,98660.83
2018-12-14T18:25:16.321Z,98676.80
2018-12-14T18:27:48.461Z,98676.31
2018-12-14T18:30:19.367Z,98679.83
2018-12-14T18:32:56.158Z,98690.18
2018-12-14T18:35:28.653Z,98686.25
2018-12-14T18:38:00.612Z,98678.62
2018-12-14T18:40:35.067Z,98680.77
2018-12-14T18:43:08.775Z,98693.51
2018-12-14T18:45:40.752Z,98683.30
2018-12-14T18:48:16.586Z,98683.98
2018-12-14T18:50:47.513Z,98680.13
2018-12-14T18:53:20.847Z,98684.30
2018-12-14T18:55:56.387Z,98681.34
2018-12-14T18:58:28.886Z,98688.27
2018-12-14T19:01:00.806Z,98695.17
2018-12-14T19:03:32.504Z,98695.11
2018-12-14T19:06:05.209Z,98698.02
2018-12-14T19:08:38.392Z,98698.09
2018-12-14T19:11:09.713Z,98707.53
2018-12-14T19:13:40.958Z,98706.32
2018-12-14T19:16:11.857Z,98703.41
2018-12-14T19:21:30.914Z,98705.07
2018-12-14T19:24:04.581Z,98709.41
2018-12-14T19:26:36.335Z,98708.44
2018-12-14T19:29:07.367Z,98710.87
2018-12-14T19:31:38.513Z,98717.88
2018-12-14T19:34:10.711Z,98714.17
2018-12-14T19:36:45.915Z,98714.41
2018-12-14T19:39:17.314Z,98723.33
2018-12-14T19:41:49.695Z,98721.09
2018-12-14T19:44:20.821Z,98729.64
2018-12-14T19:46:53.980Z,98730.93
2018-12-14T19:49:25.110Z,98738.76
2018-12-14T19:51:57.625Z,98737.13
2018-12-14T19:54:29.189Z,98735.77
2018-12-14T19:57:01.781Z,98736.67
2018-12-14T19:59:33.273Z,98738.38
2018-12-14T20:02:06.195Z,98731.27
2018-12-14T20:04:38.717Z,98739.47
2018-12-14T20:07:09.802Z,98744.50
2018-12-14T20:09:40.850Z,98752.10
2018-12-14T20:12:12.243Z,98755.36
2018-12-14T20:14:44.300Z,98756.08
2018-12-14T20:17:15.863Z,98755.44
2018-12-14T20:19:47.693Z,98757.10
2018-12-14T20:22:20.388Z,98760.80
2018-12-14T20:24:51.301Z,98757.66
2018-12-14T20:27:23.853Z,98764.86
2018-12-14T20:29:54.751Z,98766.48
2018-12-14T20:32:25.925Z,98766.46
2018-12-14T20:34:57.299Z,98769.90
2018-12-14T20:37:28.298Z,98773.06
2018-12-14T20:39:59.418Z,98776.89
2018-12-14T20:42:31.386Z,98771.71
2018-12-14T20:45:04.270Z,98778.06
2018-12-14T20:47:35.518Z,98774.14
2018-12-14T20:50:08.206Z,98777.47
2018-12-14T20:52:40.469Z,98785.15
2018-12-14T20:55:11.796Z,98785.56
2018-12-14T20:57:42.705Z,98779.06
2018-12-14T21:00:14.298Z,98777.41
2018-12-14T21:02:46.043Z,98783.70
2018-12-14T21:05:17.732Z,98774.98
2018-12-14T21:07:49.740Z,98770.91
2018-12-14T21:10:20.842Z,98768.96
2018-12-14T21:12:51.858Z,98764.47
2018-12-14T21:15:23.531Z,98765.98
2018-12-14T21:17:54.859Z,98764.55
2018-12-14T21:20:25.806Z,98764.48
2018-12-14T21:22:57.037Z,98764.33
2018-12-14T21:25:27.965Z,98764.63
2018-12-14T21:28:00.430Z,98762.77
2018-12-14T21:30:31.494Z,98766.18
2018-12-14T21:33:02.430Z,98766.48
2018-12-14T21:35:33.366Z,98760.84
2018-12-14T21:38:04.427Z,98754.86
2018-12-14T21:40:35.462Z,98761.97
2018-12-14T21:43:06.562Z,98760.15
2018-12-14T21:45:38.498Z,98763.97
2018-12-14T21:48:10.463Z,98763.55
2018-12-14T21:50:41.434Z,98761.28
2018-12-14T21:53:14.565Z,98759.12
2018-12-14T21:55:45.506Z,98763.43
2018-12-14T21:58:16.858Z,98762.48
2018-12-14T22:00:47.761Z,98755.59
2018-12-14T22:03:18.690Z,98754.69
2018-12-14T22:05:49.639Z,98754.64
2018-12-14T22:08:20.580Z,98761.86
2018-12-14T22:10:52.850Z,98753.64
2018-12-14T22:13:25.417Z,98748.08
2018-12-14T22:15:58.140Z,98744.64
2018-12-14T22:18:29.058Z,98741.65
2018-12-14T22:21:00.792Z,98742.14
2018-12-14T22:23:32.247Z,98743.92
2018-12-14T22:26:03.274Z,98735.87
2018-12-14T22:28:34.575Z,98739.02
2018-12-14T22:31:05.558Z,98738.65
2018-12-14T22:33:36.517Z,98737.36
2018-12-14T22:36:07.959Z,98734.87
2018-12-14T22:38:38.864Z,98737.94
2018-12-14T22:41:09.854Z,98740.81
2018-12-14T22:43:41.262Z,98735.28
2018-12-14T22:46:12.258Z,98736.16
2018-12-14T22:48:43.662Z,98732.70
2018-12-14T22:51:14.625Z,98738.27
2018-12-14T22:53:45.530Z,98739.56
2018-12-14T22:56:16.490Z,98740.84
2018-12-14T22:58:47.413Z,98745.58
2018-12-14T23:01:19.719Z,98749.48
2018-12-14T23:03:50.635Z,98746.41
2018-12-14T23:06:22.202Z,98748.07
2018-12-14T23:08:53.102Z,98748.86
2018-12-14T23:11:25.873Z,98747.66
2018-12-14T23:13:56.754Z,98745.53
2018-12-14T23:16:27.699Z,98751.10
2018-12-14T23:18:58.685Z,98744.59
2018-12-14T23:21:29.638Z,98750.19
2018-12-14T23:24:00.561Z,98750.11
2018-12-14T23:26:32.869Z,98746.74
2018-12-14T23:29:03.788Z,98740.77
2018-12-14T23:31:35.677Z,98741.64
2018-12-14T23:34:07.132Z,98744.41
2018-12-14T23:36:38.009Z,98740.97
2018-12-14T23:39:08.957Z,98742.67
2018-12-14T23:41:54.054Z,98748.27
2018-12-14T23:44:24.982Z,98751.34
2018-12-14T23:46:58.935Z,98754.70
2018-12-14T23:49:29.724Z,98757.27
2018-12-14T23:52:00.773Z,98757.31
2018-12-14T23:54:31.699Z,98759.81
2018-12-14T23:57:02.879Z,98761.05
2018-12-14T23:59:33.792Z,98760.19
